createdAt,value
2022-10-31T16:10:47.040Z,12.60
2022-10-31T22:11:11.560Z,11.94
2022-10-31T22:13:37.678Z,11.95
2022-10-31T22:16:06.921Z,11.98
2022-10-31T22:18:33.687Z,11.98
2022-10-31T22:21:07.913Z,11.96
2022-10-31T22:23:34.484Z,11.98
2022-10-31T22:26:05.951Z,11.98
2022-10-31T22:28:33.024Z,11.98
2022-10-31T22:31:03.070Z,11.99
2022-10-31T22:33:29.277Z,11.98
2022-10-31T22:35:55.389Z,11.96
2022-10-31T22:38:21.525Z,11.96
2022-10-31T22:40:47.640Z,11.96
2022-10-31T22:43:13.789Z,11.96
2022-10-31T22:45:39.908Z,11.97
2022-10-31T22:48:06.850Z,11.95
2022-10-31T22:50:32.975Z,11.96
2022-10-31T22:52:59.114Z,11.95
2022-10-31T22:55:25.225Z,11.93
2022-10-31T22:57:51.372Z,11.93
2022-10-31T23:00:18.543Z,11.92
2022-10-31T23:02:44.681Z,11.94
2022-10-31T23:05:10.788Z,11.98
2022-10-31T23:07:36.912Z,11.95
2022-10-31T23:10:03.053Z,11.93
2022-10-31T23:12:48.473Z,11.93
2022-10-31T23:15:14.593Z,11.92
2022-10-31T23:17:40.716Z,11.89
2022-10-31T23:20:07.250Z,11.93
2022-10-31T23:22:33.389Z,11.87
2022-10-31T23:24:59.535Z,11.82
2022-10-31T23:27:25.723Z,11.79
2022-10-31T23:29:54.119Z,11.76
2022-10-31T23:32:22.901Z,11.77
2022-10-31T23:34:51.745Z,11.76
2022-10-31T23:37:20.622Z,11.71
2022-10-31T23:39:47.337Z,11.73
2022-10-31T23:42:13.995Z,11.71
2022-10-31T23:44:40.318Z,11.70
2022-10-31T23:47:06.895Z,11.67
2022-10-31T23:49:33.023Z,11.62
2022-10-31T23:51:59.228Z,11.64
2022-10-31T23:54:26.740Z,11.63
2022-10-31T23:56:53.554Z,11.60
2022-10-31T23:59:19.764Z,11.56
